createdAt,value
2022-12-01T00:00:56.267Z,102402.69
2022-12-01T00:02:59.323Z,102384.59
2022-12-01T00:05:01.342Z,102399.09
2022-12-01T00:07:03.064Z,102403.56
2022-12-01T00:09:05.077Z,102402.47
2022-12-01T00:11:11.736Z,102398.81
2022-12-01T00:13:13.736Z,102388.03
2022-12-01T00:15:15.469Z,102396.03
2022-12-01T00:17:17.386Z,102345.09
2022-12-01T00:19:19.107Z,102392.66
2022-12-01T00:21:23.293Z,102389.13
2022-12-01T00:23:25.579Z,102388.03
2022-12-01T00:25:28.556Z,102389.94
2022-12-01T00:27:30.300Z,102391.75
2022-12-01T00:29:32.357Z,102394.19
2022-12-01T00:31:34.215Z,102390.84
2022-12-01T00:33:36.274Z,102393.31
2022-12-01T00:35:38.052Z,102396.41
2022-12-01T00:37:39.984Z,102388.66
2022-12-01T00:39:41.841Z,102396.09
2022-12-01T00:41:43.537Z,102392.78
2022-12-01T00:43:45.246Z,102391.69
2022-12-01T00:45:47.286Z,102388.03
2022-12-01T00:47:49.142Z,102390.44
2022-12-01T00:49:51.029Z,102391.03
2022-12-01T00:51:53.045Z,102392.94
2022-12-01T00:53:54.814Z,102387.53
2022-12-01T00:55:56.620Z,102390.03
2022-12-01T00:57:58.369Z,102391.03
2022-12-01T01:00:00.286Z,102378.59
2022-12-01T01:02:03.981Z,102378.00
2022-12-01T01:04:06.261Z,102375.06
2022-12-01T01:06:11.199Z,102370.88
2022-12-01T01:08:14.819Z,102374.34
2022-12-01T01:10:16.508Z,102371.00
2022-12-01T01:12:18.291Z,102375.34
2022-12-01T01:14:20.791Z,102364.22
2022-12-01T01:16:22.773Z,102371.91
2022-12-01T01:18:24.737Z,102378.34
2022-12-01T01:20:26.508Z,102369.94
2022-12-01T01:22:28.404Z,102376.06
2022-12-01T01:24:30.158Z,102357.06
2022-12-01T01:26:33.071Z,102373.34
2022-12-01T01:28:34.976Z,102370.22
2022-12-01T01:30:39.991Z,102372.78
2022-12-01T01:32:41.717Z,102372.50
2022-12-01T01:34:43.666Z,102372.16
2022-12-01T01:36:45.401Z,102366.28
2022-12-01T01:38:47.521Z,102366.75
2022-12-01T01:40:49.474Z,102367.59
2022-12-01T01:42:51.348Z,102366.34
2022-12-01T01:44:56.208Z,102351.66
2022-12-01T01:46:58.310Z,102363.06
2022-12-01T01:49:06.158Z,102359.09
2022-12-01T01:51:08.730Z,102365.88
2022-12-01T01:53:13.659Z,102368.97
2022-12-01T01:55:16.429Z,102362.69
2022-12-01T01:57:26.727Z,102367.34
2022-12-01T01:59:31.782Z,102366.72
2022-12-01T02:01:33.729Z,102367.88
2022-12-01T02:03:38.188Z,102360.81
2022-12-01T02:05:40.645Z,102344.69
2022-12-01T02:07:43.022Z,102366.75
2022-12-01T02:09:45.748Z,102366.47
2022-12-01T02:12:05.164Z,102367.97
2022-12-01T02:14:18.226Z,102367.81
2022-12-01T02:16:38.436Z,102374.63
2022-12-01T02:18:51.955Z,102367.53
2022-12-01T02:21:32.392Z,102373.09
2022-12-01T02:24:11.503Z,102361.66
2022-12-01T02:26:34.788Z,102370.47
2022-12-01T02:28:45.207Z,102366.44
2022-12-01T02:31:15.086Z,102325.47
2022-12-01T02:33:25.604Z,102359.53
2022-12-01T02:35:45.783Z,102357.34
2022-12-01T02:38:14.642Z,102347.06
2022-12-01T02:40:26.821Z,102354.19
2022-12-01T02:42:43.851Z,102357.50
2022-12-01T02:44:47.645Z,102353.00
2022-12-01T02:47:03.063Z,102359.78
2022-12-01T02:49:10.183Z,102355.59
2022-12-01T02:51:18.229Z,102353.72
2022-12-01T02:53:21.417Z,102355.00
2022-12-01T02:55:23.268Z,102357.31
2022-12-01T02:57:26.111Z,102350.34
2022-12-01T02:59:28.308Z,102357.41
2022-12-01T03:01:48.089Z,102347.16
2022-12-01T03:04:23.065Z,102307.03
2022-12-01T03:07:03.639Z,102346.44
2022-12-01T03:09:17.699Z,102355.91
2022-12-01T03:11:24.484Z,102352.19
2022-12-01T03:13:41.773Z,102354.28
2022-12-01T03:15:54.190Z,102344.78
2022-12-01T03:18:17.220Z,102341.09
2022-12-01T03:20:43.558Z,102341.84
2022-12-01T03:22:53.911Z,102348.47
2022-12-01T03:24:57.728Z,102342.00
2022-12-01T03:27:02.472Z,102345.81
2022-12-01T03:29:13.776Z,102346.00
2022-12-01T03:31:20.527Z,102348.81
2022-12-01T03:33:28.085Z,102350.16
2022-12-01T03:35:39.103Z,102345.88
2022-12-01T03:37:49.782Z,102347.34
2022-12-01T03:39:59.964Z,102354.34
2022-12-01T03:42:26.044Z,102349.28
2022-12-01T03:44:35.877Z,102345.44
2022-12-01T03:46:58.417Z,102351.63
2022-12-01T03:49:00.120Z,102348.97
2022-12-01T03:51:22.941Z,102350.19
2022-12-01T03:53:29.812Z,102336.69
2022-12-01T03:55:36.052Z,102355.41
2022-12-01T03:57:56.575Z,102348.38
2022-12-01T03:59:58.881Z,102355.38
2022-12-01T04:02:00.651Z,102353.84
2022-12-01T04:04:08.351Z,102356.81
2022-12-01T04:06:10.503Z,102359.53
2022-12-01T04:08:12.294Z,102363.63
2022-12-01T04:10:14.184Z,102364.94
2022-12-01T04:12:16.161Z,102360.75
2022-12-01T04:14:17.833Z,102361.78
2022-12-01T04:16:19.606Z,102364.28
2022-12-01T04:18:22.107Z,102358.09
2022-12-01T04:20:23.844Z,102356.84
2022-12-01T04:22:26.287Z,102314.09
2022-12-01T04:24:28.410Z,102353.41
2022-12-01T04:26:34.980Z,102357.69
2022-12-01T04:28:36.703Z,102358.31
2022-12-01T04:30:38.662Z,102361.47
2022-12-01T04:32:42.067Z,102356.53
2022-12-01T04:34:44.185Z,102353.69
2022-12-01T04:36:46.196Z,102358.84
2022-12-01T04:38:47.916Z,102366.34
2022-12-01T04:40:49.623Z,102363.06
2022-12-01T04:42:51.708Z,102358.84
2022-12-01T04:44:53.402Z,102360.69
2022-12-01T04:46:55.183Z,102367.59
2022-12-01T04:48:57.354Z,102372.78
2022-12-01T04:50:59.079Z,102311.66
2022-12-01T04:53:00.822Z,102365.34
2022-12-01T04:55:04.035Z,102367.13
2022-12-01T04:57:05.741Z,102358.78
2022-12-01T04:59:07.916Z,102363.53
2022-12-01T05:01:13.295Z,102363.56
2022-12-01T05:03:15.390Z,102357.78
2022-12-01T05:05:17.147Z,102359.75
2022-12-01T05:07:19.350Z,102357.91
2022-12-01T05:09:21.271Z,102361.44
2022-12-01T05:11:24.897Z,102358.66
2022-12-01T05:13:26.710Z,102368.22
2022-12-01T05:15:28.647Z,102362.13
2022-12-01T05:17:36.818Z,102367.31
2022-12-01T05:19:39.312Z,102366.63
2022-12-01T05:21:42.317Z,102365.81
2022-12-01T05:23:44.361Z,102351.06
2022-12-01T05:25:46.845Z,102361.47
2022-12-01T05:27:48.528Z,102364.69
2022-12-01T05:29:50.393Z,102356.25
2022-12-01T05:31:52.506Z,102373.13
2022-12-01T05:33:54.198Z,102367.16
2022-12-01T05:35:56.215Z,102365.47
2022-12-01T05:37:58.550Z,102366.50
2022-12-01T05:40:02.169Z,102363.94
2022-12-01T05:42:04.027Z,102370.44
2022-12-01T05:44:06.146Z,102368.28
2022-12-01T05:46:08.186Z,102371.59
2022-12-01T05:48:10.156Z,102366.59
2022-12-01T05:50:12.138Z,102369.97
2022-12-01T05:52:13.866Z,102357.22
2022-12-01T05:54:15.608Z,102371.97
2022-12-01T05:56:17.593Z,102358.28
2022-12-01T05:58:19.392Z,102369.06
2022-12-01T06:00:21.461Z,102370.94
2022-12-01T06:02:23.344Z,102372.50
2022-12-01T06:04:25.136Z,102376.28
2022-12-01T06:06:26.907Z,102376.00
2022-12-01T06:08:28.740Z,102375.16
2022-12-01T06:10:30.448Z,102372.41
2022-12-01T06:12:32.182Z,102383.56
2022-12-01T06:14:34.198Z,102377.22
2022-12-01T06:16:35.974Z,102381.16
2022-12-01T06:18:38.797Z,102388.75
2022-12-01T06:20:40.893Z,102385.59
2022-12-01T06:22:42.664Z,102389.94
2022-12-01T06:24:44.394Z,102380.03
2022-12-01T06:26:46.430Z,102380.56
2022-12-01T06:28:48.156Z,102386.47
2022-12-01T06:30:49.859Z,102390.25
2022-12-01T06:32:51.752Z,102386.94
2022-12-01T06:34:53.752Z,102389.19
2022-12-01T06:36:55.457Z,102381.34
2022-12-01T06:38:57.472Z,102383.25
2022-12-01T06:40:59.656Z,102383.97
2022-12-01T06:43:02.221Z,102387.88
2022-12-01T06:45:04.576Z,102391.31
2022-12-01T06:47:06.257Z,102383.59
2022-12-01T06:49:11.899Z,102393.38
2022-12-01T06:51:14.025Z,102389.84
2022-12-01T06:53:15.702Z,102389.59
2022-12-01T06:55:17.502Z,102388.09
2022-12-01T06:57:19.475Z,102381.63
2022-12-01T06:59:21.645Z,102391.16
2022-12-01T07:01:23.877Z,102382.50
2022-12-01T07:03:26.238Z,102373.09
2022-12-01T07:05:27.925Z,102390.47
2022-12-01T07:07:29.645Z,102393.03
2022-12-01T07:09:31.796Z,102387.84
2022-12-01T07:11:33.515Z,102381.53
2022-12-01T07:13:35.856Z,102388.50
2022-12-01T07:15:38.686Z,102391.72
2022-12-01T07:17:40.432Z,102383.78
2022-12-01T07:19:42.112Z,102389.13
2022-12-01T07:21:44.007Z,102392.16
2022-12-01T07:23:45.700Z,102389.41
2022-12-01T07:25:47.396Z,102394.13
2022-12-01T07:27:49.533Z,102392.53
2022-12-01T07:29:51.488Z,102386.78
2022-12-01T07:31:53.348Z,102393.47
2022-12-01T07:33:55.481Z,102392.66
2022-12-01T07:35:57.218Z,102391.06
2022-12-01T07:37:58.891Z,102395.44
2022-12-01T07:40:00.870Z,102396.72
2022-12-01T07:42:03.040Z,102391.09
2022-12-01T07:44:04.844Z,102393.28
2022-12-01T07:46:20.412Z,102389.81
2022-12-01T07:48:24.241Z,102391.91
2022-12-01T07:50:25.925Z,102399.44
2022-12-01T07:52:28.117Z,102401.72
2022-12-01T07:54:29.835Z,102398.47
2022-12-01T07:56:31.976Z,102397.94
2022-12-01T07:58:34.131Z,102407.19
2022-12-01T08:00:35.818Z,102401.84
2022-12-01T08:02:37.595Z,102407.41
2022-12-01T08:04:39.494Z,102408.69
2022-12-01T08:06:41.168Z,102400.53
2022-12-01T08:08:43.070Z,102400.72
2022-12-01T08:10:45.316Z,102393.19
2022-12-01T08:12:47.018Z,102408.28
2022-12-01T08:14:48.728Z,102409.06
2022-12-01T08:16:50.825Z,102390.19
2022-12-01T08:18:53.243Z,102404.75
2022-12-01T08:20:57.340Z,102412.47
2022-12-01T08:23:02.585Z,102409.00
2022-12-01T08:25:05.303Z,102403.22
2022-12-01T08:27:07.019Z,102405.13
2022-12-01T08:29:09.170Z,102402.91
2022-12-01T08:31:14.457Z,102390.84
2022-12-01T08:33:16.229Z,102407.34
2022-12-01T08:35:18.280Z,102399.78
2022-12-01T08:37:19.972Z,102407.91
2022-12-01T08:39:21.724Z,102405.91
2022-12-01T08:41:24.280Z,102403.75
2022-12-01T08:43:56.144Z,102394.59
2022-12-01T08:45:47.726Z,102397.34
2022-12-01T08:47:50.131Z,102391.47
2022-12-01T08:49:51.882Z,102406.47
2022-12-01T08:51:53.677Z,102402.31
2022-12-01T08:53:57.926Z,102412.75
2022-12-01T08:56:05.934Z,102413.44
2022-12-01T08:58:08.383Z,102409.22
2022-12-01T09:00:10.891Z,102407.88
2022-12-01T09:02:15.955Z,102404.59
2022-12-01T09:04:18.983Z,102400.00
2022-12-01T09:06:21.130Z,102400.84
2022-12-01T09:08:22.843Z,102410.75
2022-12-01T09:10:24.580Z,102402.22
2022-12-01T09:12:28.599Z,102413.03
2022-12-01T09:14:30.318Z,102414.25
2022-12-01T09:16:32.414Z,102423.03
2022-12-01T09:18:34.663Z,102398.75
2022-12-01T09:20:36.354Z,102418.84
2022-12-01T09:22:38.094Z,102418.00
2022-12-01T09:24:40.055Z,102406.31
2022-12-01T09:26:42.739Z,102411.50
2022-12-01T09:28:49.381Z,102411.06
2022-12-01T09:30:51.494Z,102411.13
2022-12-01T09:32:53.172Z,102411.97
2022-12-01T09:34:54.893Z,102411.63
2022-12-01T09:36:57.649Z,102420.28
2022-12-01T09:39:00.199Z,102410.38
2022-12-01T09:41:05.959Z,102415.16
2022-12-01T09:43:24.548Z,102411.47
2022-12-01T09:45:30.862Z,102414.13
2022-12-01T09:47:35.721Z,102406.41
2022-12-01T09:49:53.035Z,102403.41
2022-12-01T09:51:55.039Z,102403.47
2022-12-01T09:53:59.541Z,102402.47
2022-12-01T09:56:08.528Z,102351.94
2022-12-01T09:58:25.747Z,102404.50
2022-12-01T10:00:35.401Z,102402.19
2022-12-01T10:02:42.196Z,102393.41
2022-12-01T10:04:47.727Z,102394.59
2022-12-01T10:06:57.626Z,102387.94
2022-12-01T10:09:20.966Z,102396.19
2022-12-01T10:11:31.701Z,102395.69
2022-12-01T10:13:34.294Z,102389.50
2022-12-01T10:15:55.040Z,102396.78
2022-12-01T10:18:34.157Z,102389.88
2022-12-01T10:20:48.548Z,102391.22
2022-12-01T10:23:00.405Z,102389.59
2022-12-01T10:25:22.078Z,102385.19
2022-12-01T10:27:36.260Z,102386.56
2022-12-01T10:29:37.980Z,102389.88
2022-12-01T10:31:54.048Z,102383.25
2022-12-01T10:34:14.883Z,102376.38
2022-12-01T10:36:16.668Z,102380.31
2022-12-01T10:38:29.636Z,102377.25
2022-12-01T10:40:31.574Z,102383.44
2022-12-01T10:42:41.399Z,102382.03
2022-12-01T10:44:43.887Z,102382.22
2022-12-01T10:46:49.000Z,102374.81
2022-12-01T10:49:00.159Z,102376.25
2022-12-01T10:51:28.158Z,102371.66
2022-12-01T10:53:33.367Z,102354.66
2022-12-01T10:55:44.920Z,102359.41
2022-12-01T10:57:50.813Z,102344.50
2022-12-01T11:00:04.769Z,102357.50
2022-12-01T11:02:17.099Z,102354.25
2022-12-01T11:04:36.425Z,102355.47
2022-12-01T11:06:38.267Z,102351.44
2022-12-01T11:08:51.665Z,102340.00
2022-12-01T11:10:53.381Z,102341.63
2022-12-01T11:13:05.886Z,102350.16
2022-12-01T11:15:17.415Z,102357.38
2022-12-01T11:17:37.077Z,102341.97
2022-12-01T11:19:38.960Z,102354.97
2022-12-01T11:21:49.850Z,102353.28
2022-12-01T11:23:53.862Z,102348.16
2022-12-01T11:26:17.228Z,102334.13
2022-12-01T11:28:20.959Z,102338.03
2022-12-01T11:30:25.989Z,102341.41
2022-12-01T11:32:37.267Z,102330.41
2022-12-01T11:34:39.094Z,102333.91
2022-12-01T11:36:47.083Z,102335.72
2022-12-01T11:38:50.371Z,102334.09
2022-12-01T11:40:55.209Z,102329.03
2022-12-01T11:43:06.169Z,102323.28
2022-12-01T11:45:18.760Z,102329.31
2022-12-01T11:47:26.234Z,102326.56
2022-12-01T11:49:29.881Z,102325.69
2022-12-01T11:51:32.796Z,102331.59
2022-12-01T11:53:40.452Z,102323.63
2022-12-01T11:55:42.181Z,102322.66
2022-12-01T11:57:45.921Z,102326.09
2022-12-01T11:59:48.339Z,102325.69
2022-12-01T12:02:05.496Z,102327.34
2022-12-01T12:04:32.269Z,102326.06
2022-12-01T12:06:45.713Z,102324.81
2022-12-01T12:09:17.578Z,102320.72
2022-12-01T12:12:04.672Z,102321.59
2022-12-01T12:14:24.277Z,102325.00
2022-12-01T12:16:43.674Z,102327.28
2022-12-01T12:19:03.055Z,102325.00
2022-12-01T12:21:10.831Z,102324.19
2022-12-01T12:23:30.797Z,102329.03
2022-12-01T12:25:39.236Z,102323.00
2022-12-01T12:27:46.706Z,102322.72
2022-12-01T12:30:13.324Z,102322.16
2022-12-01T12:32:56.496Z,102319.59
2022-12-01T12:35:16.012Z,102315.25
2022-12-01T12:37:25.475Z,102314.16
2022-12-01T12:39:43.288Z,102316.69
2022-12-01T12:41:55.263Z,102318.22
2022-12-01T12:44:11.144Z,102315.53
2022-12-01T12:46:31.460Z,102314.69
2022-12-01T12:49:18.680Z,102317.00
2022-12-01T12:51:24.036Z,102311.50
2022-12-01T12:53:32.085Z,102316.41
2022-12-01T12:55:39.865Z,102312.94
2022-12-01T12:57:48.887Z,102313.31
2022-12-01T13:00:03.210Z,102313.72
2022-12-01T13:02:31.890Z,102316.75
2022-12-01T13:04:51.047Z,102315.38
2022-12-01T13:07:00.860Z,102312.50
2022-12-01T13:09:09.647Z,102319.97
2022-12-01T13:11:29.650Z,102319.53
2022-12-01T13:13:37.115Z,102316.84
2022-12-01T13:15:40.475Z,102306.31
2022-12-01T13:17:46.225Z,102317.47
2022-12-01T13:19:48.759Z,102320.69
2022-12-01T13:21:52.511Z,102328.06
2022-12-01T13:23:54.487Z,102316.41
2022-12-01T13:26:01.323Z,102322.78
2022-12-01T13:28:07.060Z,102324.25
2022-12-01T13:30:21.390Z,102322.50
2022-12-01T13:32:35.485Z,102319.72
2022-12-01T13:34:42.844Z,102314.28
2022-12-01T13:36:50.721Z,102320.69
2022-12-01T13:39:00.067Z,102324.50
2022-12-01T13:41:13.990Z,102317.75
2022-12-01T13:43:21.634Z,102321.19
2022-12-01T13:45:23.884Z,102320.50
2022-12-01T13:47:47.121Z,102316.59
2022-12-01T13:49:51.771Z,102318.56
2022-12-01T13:52:32.644Z,102317.16
2022-12-01T13:54:36.665Z,102316.84
2022-12-01T13:56:46.379Z,102323.16
2022-12-01T13:58:54.348Z,102322.53
2022-12-01T14:01:21.961Z,102313.31
2022-12-01T14:03:31.856Z,102317.72
2022-12-01T14:05:40.348Z,102321.06
2022-12-01T14:07:43.407Z,102318.34
2022-12-01T14:09:45.458Z,102316.44
2022-12-01T14:12:00.716Z,102325.22
2022-12-01T14:14:12.586Z,102313.78
2022-12-01T14:16:15.457Z,102316.94
2022-12-01T14:18:29.225Z,102319.06
2022-12-01T14:20:35.033Z,102312.25
2022-12-01T14:22:45.442Z,102302.13
2022-12-01T14:24:53.021Z,102315.16
2022-12-01T14:26:55.482Z,102311.84
2022-12-01T14:29:00.189Z,102310.13
2022-12-01T14:31:06.342Z,102303.13
2022-12-01T14:33:36.200Z,102268.75
2022-12-01T14:35:38.024Z,102305.13
2022-12-01T14:37:44.367Z,102303.03
2022-12-01T14:39:52.414Z,102294.06
2022-12-01T14:42:02.887Z,102305.41
2022-12-01T14:44:27.707Z,102306.63
2022-12-01T14:46:35.255Z,102300.53
2022-12-01T14:48:44.442Z,102298.09
2022-12-01T14:50:52.263Z,102298.06
2022-12-01T14:53:01.604Z,102296.06
2022-12-01T14:55:07.958Z,102299.53
2022-12-01T14:57:16.724Z,102298.63
2022-12-01T14:59:21.748Z,102304.59
2022-12-01T15:01:25.628Z,102293.06
2022-12-01T15:03:33.567Z,102301.81
2022-12-01T15:05:41.384Z,102291.94
2022-12-01T15:07:47.219Z,102294.69
2022-12-01T15:10:19.735Z,102289.41
2022-12-01T15:12:27.984Z,102293.03
2022-12-01T15:14:38.746Z,102293.28
2022-12-01T15:16:41.316Z,102293.56
2022-12-01T15:18:43.333Z,102285.81
2022-12-01T15:20:47.800Z,102295.25
2022-12-01T15:22:50.402Z,102289.97
2022-12-01T15:24:52.356Z,102300.53
2022-12-01T15:27:02.168Z,102299.50
2022-12-01T15:29:25.776Z,102296.81
2022-12-01T15:31:27.574Z,102297.25
2022-12-01T15:33:37.161Z,102295.06
2022-12-01T15:35:39.285Z,102291.97
2022-12-01T15:37:43.607Z,102293.50
2022-12-01T15:39:49.496Z,102295.88
2022-12-01T15:41:51.729Z,102292.53
2022-12-01T15:43:58.808Z,102290.78
2022-12-01T15:46:10.702Z,102292.66
2022-12-01T15:48:26.964Z,102299.00
2022-12-01T15:50:37.675Z,102299.38
2022-12-01T15:52:43.927Z,102271.03
2022-12-01T15:54:49.905Z,102296.56
2022-12-01T15:56:54.762Z,102292.34
2022-12-01T15:59:14.253Z,102295.28
2022-12-01T16:01:25.708Z,102299.84
2022-12-01T16:03:28.414Z,102301.91
2022-12-01T16:05:32.378Z,102296.34
2022-12-01T16:08:11.646Z,102305.34
2022-12-01T16:09:59.532Z,102303.06
2022-12-01T16:12:17.086Z,102305.34
2022-12-01T16:14:22.789Z,102303.16
2022-12-01T16:16:41.807Z,102307.94
2022-12-01T16:19:09.216Z,102302.19
2022-12-01T16:21:11.073Z,102299.84
2022-12-01T16:23:23.501Z,102300.50
2022-12-01T16:25:46.111Z,102298.47
2022-12-01T16:27:52.981Z,102299.63
2022-12-01T16:30:02.616Z,102296.03
2022-12-01T16:32:20.246Z,102298.03
2022-12-01T16:34:44.487Z,102299.78
2022-12-01T16:36:45.797Z,102298.94
2022-12-01T16:38:47.512Z,102292.66
2022-12-01T16:40:54.471Z,102298.06
2022-12-01T16:42:56.206Z,102301.53
2022-12-01T16:44:57.948Z,102291.53
2022-12-01T16:46:59.761Z,102282.06
2022-12-01T16:49:01.463Z,102285.44
2022-12-01T16:51:05.798Z,102263.44
2022-12-01T16:53:07.980Z,102281.38
2022-12-01T16:55:41.862Z,102291.63
2022-12-01T16:57:43.600Z,102298.44
2022-12-01T16:59:45.568Z,102285.56
2022-12-01T17:01:53.563Z,102285.56
2022-12-01T17:03:55.608Z,102285.28
2022-12-01T17:06:00.276Z,102281.88
2022-12-01T17:08:02.159Z,102278.53
2022-12-01T17:10:05.152Z,102284.22
2022-12-01T17:12:07.460Z,102286.25
2022-12-01T17:14:09.553Z,102280.81
2022-12-01T17:16:16.733Z,102290.09
2022-12-01T17:18:21.477Z,102284.81
2022-12-01T17:20:23.423Z,102287.88
2022-12-01T17:22:25.437Z,102279.00
2022-12-01T17:24:28.623Z,102279.50
2022-12-01T17:26:30.337Z,102277.38
2022-12-01T17:28:32.108Z,102273.34
2022-12-01T17:30:34.186Z,102278.91
2022-12-01T17:32:36.026Z,102284.13
2022-12-01T17:34:37.727Z,102279.91
2022-12-01T17:36:39.685Z,102283.28
2022-12-01T17:38:43.750Z,102283.09
2022-12-01T17:40:45.450Z,102272.81
2022-12-01T17:42:50.607Z,102280.50
2022-12-01T17:44:52.951Z,102280.69
2022-12-01T17:46:54.789Z,102273.63
2022-12-01T17:48:56.565Z,102265.56
2022-12-01T17:50:58.956Z,102276.88
2022-12-01T17:53:00.666Z,102281.28
2022-12-01T17:55:02.409Z,102286.16
2022-12-01T17:57:04.457Z,102278.81
2022-12-01T17:59:06.264Z,102278.53
2022-12-01T18:01:14.547Z,102276.28
2022-12-01T18:03:16.404Z,102285.44
2022-12-01T18:05:18.180Z,102274.97
2022-12-01T18:07:20.562Z,102283.59
2022-12-01T18:09:22.761Z,102276.91
2022-12-01T18:11:24.500Z,102276.09
2022-12-01T18:13:26.365Z,102287.66
2022-12-01T18:15:33.231Z,102283.97
2022-12-01T18:17:36.679Z,102285.34
2022-12-01T18:19:38.577Z,102278.38
2022-12-01T18:21:40.812Z,102277.19
2022-12-01T18:23:42.711Z,102267.72
2022-12-01T18:25:44.450Z,102276.69
2022-12-01T18:27:46.687Z,102278.38
2022-12-01T18:29:48.372Z,102275.78
2022-12-01T18:31:50.430Z,102282.97
2022-12-01T18:33:52.326Z,102282.78
2022-12-01T18:35:54.053Z,102275.44
2022-12-01T18:37:58.879Z,102281.56
2022-12-01T18:40:00.887Z,102288.34
2022-12-01T18:42:02.660Z,102281.28
2022-12-01T18:44:05.170Z,102276.63
2022-12-01T18:46:07.580Z,102261.47
2022-12-01T18:48:09.303Z,102277.97
2022-12-01T18:50:11.440Z,102277.38
2022-12-01T18:52:13.157Z,102270.72
2022-12-01T18:54:16.028Z,102273.13
2022-12-01T18:56:17.763Z,102268.97
2022-12-01T18:58:19.494Z,102285.09
2022-12-01T19:00:21.734Z,102272.53
2022-12-01T19:02:24.131Z,102277.97
2022-12-01T19:04:25.930Z,102269.19
2022-12-01T19:06:28.861Z,102274.09
2022-12-01T19:08:30.854Z,102270.38
2022-12-01T19:10:32.952Z,102272.81
2022-12-01T19:12:40.837Z,102273.63
2022-12-01T19:14:43.605Z,102273.22
2022-12-01T19:16:45.993Z,102274.81
2022-12-01T19:18:47.958Z,102269.47
2022-12-01T19:20:50.455Z,102273.03
2022-12-01T19:22:52.219Z,102269.06
2022-12-01T19:24:54.423Z,102267.41
2022-12-01T19:26:56.276Z,102272.88
2022-12-01T19:28:58.091Z,102265.78
2022-12-01T19:31:00.290Z,102275.63
2022-12-01T19:33:02.098Z,102269.59
2022-12-01T19:35:04.439Z,102266.19
2022-12-01T19:37:06.281Z,102266.66
2022-12-01T19:39:08.286Z,102259.50
2022-12-01T19:41:10.837Z,102266.28
2022-12-01T19:43:12.555Z,102268.69
2022-12-01T19:45:14.390Z,102276.78
2022-12-01T19:47:21.746Z,102275.47
2022-12-01T19:49:24.159Z,102277.53
2022-12-01T19:51:32.089Z,102273.38
2022-12-01T19:53:36.045Z,102277.69
2022-12-01T19:55:37.901Z,102280.84
2022-12-01T19:57:39.707Z,102282.91
2022-12-01T19:59:41.494Z,102280.41
2022-12-01T20:01:44.204Z,102282.81
2022-12-01T20:03:48.050Z,102283.56
2022-12-01T20:05:49.847Z,102282.53
2022-12-01T20:07:51.755Z,102282.16
2022-12-01T20:09:53.501Z,102295.31
2022-12-01T20:11:55.249Z,102291.44
2022-12-01T20:13:57.021Z,102297.88
2022-12-01T20:16:13.210Z,102299.00
2022-12-01T20:18:15.143Z,102297.34
2022-12-01T20:20:16.872Z,102303.00
2022-12-01T20:22:19.016Z,102300.38
2022-12-01T20:24:20.846Z,102300.28
2022-12-01T20:26:27.561Z,102298.38
2022-12-01T20:28:33.464Z,102291.59
2022-12-01T20:30:40.027Z,102296.59
2022-12-01T20:32:41.777Z,102286.94
2022-12-01T20:34:43.784Z,102288.66
2022-12-01T20:36:45.692Z,102296.25
2022-12-01T20:38:47.768Z,102300.75
2022-12-01T20:40:52.083Z,102296.75
2022-12-01T20:42:54.063Z,102303.66
2022-12-01T20:44:55.759Z,102310.75
2022-12-01T20:46:57.591Z,102303.06
2022-12-01T20:48:59.646Z,102305.88
2022-12-01T20:51:02.911Z,102306.97
2022-12-01T20:53:04.793Z,102302.44
2022-12-01T20:55:07.007Z,102310.19
2022-12-01T20:57:08.778Z,102309.19
2022-12-01T20:59:10.881Z,102304.22
2022-12-01T21:01:15.719Z,102306.75
2022-12-01T21:03:20.799Z,102308.22
2022-12-01T21:05:24.392Z,102299.88
2022-12-01T21:07:26.162Z,102310.44
2022-12-01T21:09:27.920Z,102308.97
2022-12-01T21:11:35.013Z,102306.44
2022-12-01T21:13:36.937Z,102308.94
2022-12-01T21:15:57.316Z,102304.56
2022-12-01T21:18:12.586Z,102306.91
2022-12-01T21:20:25.785Z,102306.00
2022-12-01T21:22:27.789Z,102302.22
2022-12-01T21:24:35.015Z,102298.66
2022-12-01T21:26:42.462Z,102302.88
2022-12-01T21:28:44.154Z,102301.69
2022-12-01T21:30:51.032Z,102301.59
2022-12-01T21:32:53.880Z,102303.28
2022-12-01T21:35:07.612Z,102305.72
2022-12-01T21:37:23.304Z,102303.94
2022-12-01T21:39:25.451Z,102299.53
2022-12-01T21:41:28.938Z,102299.69
2022-12-01T21:43:35.224Z,102300.53
2022-12-01T21:45:39.933Z,102295.28
2022-12-01T21:47:42.048Z,102294.53
2022-12-01T21:49:44.598Z,102295.19
2022-12-01T21:51:48.023Z,102298.22
2022-12-01T21:53:51.139Z,102300.50
2022-12-01T21:55:56.127Z,102297.06
2022-12-01T21:57:57.873Z,102292.69
2022-12-01T22:00:29.131Z,102291.19
2022-12-01T22:03:00.304Z,102291.63
2022-12-01T22:05:02.085Z,102293.09
2022-12-01T22:07:03.803Z,102291.13
2022-12-01T22:09:23.653Z,102283.44
2022-12-01T22:11:27.450Z,102284.50
2022-12-01T22:13:43.161Z,102289.69
2022-12-01T22:15:44.951Z,102285.28
2022-12-01T22:17:46.686Z,102284.88
2022-12-01T22:20:00.124Z,102279.56
2022-12-01T22:22:27.888Z,102278.81
2022-12-01T22:24:38.915Z,102273.66
2022-12-01T22:26:46.275Z,102274.50
2022-12-01T22:28:55.083Z,102279.22
2022-12-01T22:30:56.943Z,102275.59
2022-12-01T22:33:03.092Z,102283.66
2022-12-01T22:35:27.833Z,102279.03
2022-12-01T22:37:45.512Z,102277.44
2022-12-01T22:39:54.008Z,102276.41
2022-12-01T22:42:04.040Z,102284.25
2022-12-01T22:44:12.014Z,102278.47
2022-12-01T22:46:24.130Z,102283.63
2022-12-01T22:48:26.236Z,102285.00
2022-12-01T22:50:33.003Z,102280.75
2022-12-01T22:52:34.694Z,102285.16
2022-12-01T22:54:44.136Z,102273.66
2022-12-01T22:56:49.123Z,102279.53
2022-12-01T22:58:50.819Z,102285.38
2022-12-01T23:00:54.045Z,102280.28
2022-12-01T23:02:56.035Z,102278.13
2022-12-01T23:05:24.815Z,102282.78
2022-12-01T23:07:35.537Z,102281.19
2022-12-01T23:09:43.795Z,102272.69
2022-12-01T23:11:51.055Z,102266.81
2022-12-01T23:13:55.419Z,102271.13
2022-12-01T23:15:57.230Z,102271.66
2022-12-01T23:18:25.078Z,102270.97
2022-12-01T23:20:30.711Z,102269.47
2022-12-01T23:22:32.971Z,102268.44
2022-12-01T23:24:34.653Z,102270.19
2022-12-01T23:26:36.467Z,102266.94
2022-12-01T23:28:39.348Z,102268.19
2022-12-01T23:30:43.752Z,102267.97
2022-12-01T23:32:48.276Z,102265.13
2022-12-01T23:34:50.689Z,102268.09
2022-12-01T23:36:53.455Z,102265.19
2022-12-01T23:39:02.654Z,102269.53
2022-12-01T23:41:16.581Z,102258.38
2022-12-01T23:43:25.687Z,102265.66
2022-12-01T23:45:28.374Z,102259.50
2022-12-01T23:47:30.560Z,102257.44
2022-12-01T23:49:35.422Z,102258.66
2022-12-01T23:51:40.069Z,102266.47
2022-12-01T23:53:41.817Z,102253.75
2022-12-01T23:55:43.561Z,102260.38
2022-12-01T23:57:45.369Z,102260.84
2022-12-01T23:59:48.244Z,102254.47
